createdAt,value
2023-05-24T00:00:16.361Z,16.90
2023-05-24T00:03:07.252Z,16.92
2023-05-24T00:05:41.528Z,16.95
2023-05-24T00:08:12.005Z,16.94
2023-05-24T00:10:44.316Z,16.92
2023-05-24T00:13:16.372Z,16.94
2023-05-24T00:15:46.356Z,16.94
2023-05-24T00:18:16.804Z,16.93
2023-05-24T00:20:46.513Z,16.92
2023-05-24T00:23:16.611Z,16.94
2023-05-24T00:25:47.375Z,16.93
2023-05-24T00:28:16.183Z,16.91
2023-05-24T00:30:46.391Z,16.89
2023-05-24T00:33:17.631Z,16.87
2023-05-24T00:35:47.891Z,16.88
2023-05-24T00:38:19.272Z,16.88
2023-05-24T00:40:49.296Z,16.87
2023-05-24T00:43:19.513Z,16.87
2023-05-24T00:45:51.327Z,16.87
2023-05-24T00:48:24.125Z,16.87
2023-05-24T00:50:54.898Z,16.85
2023-05-24T00:53:24.740Z,16.85
2023-05-24T00:55:55.065Z,16.84
2023-05-24T00:58:27.564Z,16.85
2023-05-24T01:01:01.721Z,16.84
2023-05-24T01:03:31.559Z,16.83
2023-05-24T01:06:04.682Z,16.82
2023-05-24T01:08:42.940Z,16.80
2023-05-24T01:11:31.470Z,16.78
2023-05-24T01:14:20.765Z,16.77
2023-05-24T01:16:57.765Z,16.74
2023-05-24T01:19:45.724Z,16.73
2023-05-24T01:22:24.609Z,16.73
2023-05-24T01:24:54.004Z,16.72
2023-05-24T01:30:29.163Z,16.69
2023-05-24T01:32:58.414Z,16.67
2023-05-24T01:35:28.537Z,16.65
2023-05-24T01:37:57.373Z,16.63
2023-05-24T01:40:26.342Z,16.61
2023-05-24T01:43:23.243Z,16.60
2023-05-24T01:46:01.910Z,16.56
2023-05-24T01:48:43.270Z,16.53
2023-05-24T01:51:16.506Z,16.48
2023-05-24T01:53:47.391Z,16.45
2023-05-24T01:56:17.891Z,16.42
2023-05-24T01:58:48.827Z,16.38
2023-05-24T02:01:18.511Z,16.35
2023-05-24T02:03:49.473Z,16.31
2023-05-24T02:06:18.380Z,16.30
2023-05-24T02:08:48.902Z,16.28
2023-05-24T02:11:17.688Z,16.26
2023-05-24T02:13:49.007Z,16.23
2023-05-24T02:16:18.663Z,16.21
2023-05-24T02:18:50.966Z,16.20
2023-05-24T02:21:20.506Z,16.16
2023-05-24T02:23:52.201Z,16.14
2023-05-24T02:26:22.450Z,16.12
2023-05-24T02:28:53.339Z,16.11
2023-05-24T02:31:23.954Z,16.09
2023-05-24T02:33:52.912Z,16.09
2023-05-24T02:36:25.229Z,16.04
2023-05-24T02:38:54.409Z,16.02
2023-05-24T02:41:23.267Z,15.98
2023-05-24T02:43:53.451Z,15.94
2023-05-24T02:46:23.519Z,15.95
2023-05-24T02:48:53.760Z,15.95
2023-05-24T02:51:24.416Z,15.94
2023-05-24T02:53:53.349Z,15.92
2023-05-24T02:56:26.282Z,15.91
2023-05-24T02:58:56.811Z,15.92
2023-05-24T03:01:28.267Z,15.90
2023-05-24T03:03:59.487Z,15.88
2023-05-24T03:06:30.067Z,15.86
2023-05-24T03:08:59.814Z,15.87
2023-05-24T03:11:31.673Z,15.89
2023-05-24T03:14:00.753Z,15.93
2023-05-24T03:16:33.435Z,15.95
2023-05-24T03:19:03.783Z,15.98
2023-05-24T03:21:34.854Z,16.00
2023-05-24T03:24:08.339Z,16.03
2023-05-24T03:26:39.959Z,16.03
2023-05-24T03:29:09.704Z,16.07
2023-05-24T03:31:41.006Z,16.09
2023-05-24T03:34:12.166Z,16.10
2023-05-24T03:36:42.509Z,16.11
2023-05-24T03:39:11.780Z,16.14
2023-05-24T03:42:06.110Z,16.18
2023-05-24T03:44:35.293Z,16.24
2023-05-24T03:47:06.622Z,16.28
2023-05-24T03:49:35.902Z,16.32
2023-05-24T03:52:08.235Z,16.35
2023-05-24T03:54:37.478Z,16.40
2023-05-24T03:57:08.785Z,16.44
2023-05-24T03:59:41.089Z,16.48
2023-05-24T04:02:11.961Z,16.51
2023-05-24T04:04:41.364Z,16.53
2023-05-24T04:07:12.312Z,16.54
2023-05-24T04:09:43.075Z,16.58
2023-05-24T04:12:12.845Z,16.63
2023-05-24T04:14:43.451Z,16.64
2023-05-24T04:17:14.591Z,16.67
2023-05-24T04:19:47.166Z,16.70
2023-05-24T04:22:17.299Z,16.76
2023-05-24T04:24:47.969Z,16.78
2023-05-24T04:27:18.549Z,16.81
2023-05-24T04:29:50.212Z,16.80
2023-05-24T04:32:20.830Z,16.83
2023-05-24T04:34:52.830Z,16.94
2023-05-24T04:37:22.263Z,17.05
2023-05-24T04:39:53.642Z,17.12
2023-05-24T04:42:34.120Z,17.21
2023-05-24T04:45:04.828Z,17.36
2023-05-24T04:47:34.572Z,17.54
2023-05-24T04:50:03.946Z,17.77
2023-05-24T04:52:33.843Z,17.97
2023-05-24T04:55:06.341Z,18.15
2023-05-24T04:57:35.897Z,18.32
2023-05-24T05:00:08.575Z,18.45
2023-05-24T05:02:40.450Z,18.56
2023-05-24T05:05:10.880Z,18.71
2023-05-24T05:07:40.938Z,18.84
2023-05-24T05:10:10.105Z,18.99
2023-05-24T05:12:39.718Z,19.22
2023-05-24T05:15:09.345Z,19.43
2023-05-24T05:17:38.839Z,19.61
2023-05-24T05:20:10.224Z,19.77
2023-05-24T05:22:45.924Z,19.97
2023-05-24T05:25:18.464Z,20.23
2023-05-24T05:27:49.512Z,20.53
2023-05-24T05:30:21.563Z,20.72
2023-05-24T05:32:50.703Z,20.84
2023-05-24T05:35:23.266Z,20.95
2023-05-24T05:37:52.940Z,21.06
2023-05-24T05:40:23.479Z,21.19
2023-05-24T05:42:54.595Z,21.32
2023-05-24T05:45:25.146Z,21.40
2023-05-24T05:47:54.272Z,21.40
2023-05-24T05:50:24.942Z,21.33
2023-05-24T05:52:55.522Z,21.27
2023-05-24T05:55:26.288Z,21.20
2023-05-24T05:57:56.669Z,21.19
2023-05-24T06:00:25.499Z,21.25
2023-05-24T06:02:57.088Z,21.31
2023-05-24T06:05:26.776Z,21.36
2023-05-24T06:07:56.947Z,21.39
2023-05-24T06:10:26.222Z,21.42
2023-05-24T06:12:55.508Z,21.41
2023-05-24T06:15:25.962Z,21.38
2023-05-24T06:17:56.769Z,21.38
2023-05-24T06:20:27.141Z,21.38
2023-05-24T06:22:57.536Z,21.38
2023-05-24T06:25:27.912Z,21.38
2023-05-24T06:27:56.781Z,21.49
2023-05-24T06:30:27.138Z,21.57
2023-05-24T06:32:56.825Z,21.65
2023-05-24T06:35:29.310Z,21.76
2023-05-24T06:37:59.221Z,21.87
2023-05-24T06:40:31.192Z,21.94
2023-05-24T06:43:01.044Z,22.00
2023-05-24T06:45:29.942Z,22.02
2023-05-24T06:47:59.125Z,22.17
2023-05-24T06:50:28.585Z,22.37
2023-05-24T06:52:59.521Z,22.57
2023-05-24T06:55:29.098Z,22.72
2023-05-24T06:58:00.871Z,22.92
2023-05-24T07:00:31.374Z,23.15
2023-05-24T07:03:02.265Z,23.48
2023-05-24T07:05:31.860Z,23.85
2023-05-24T07:08:00.851Z,24.13
2023-05-24T07:10:30.112Z,24.36
2023-05-24T07:12:59.438Z,24.54
2023-05-24T07:15:28.823Z,24.63
2023-05-24T07:17:58.725Z,24.61
2023-05-24T07:20:28.822Z,24.64
2023-05-24T07:22:58.786Z,24.73
2023-05-24T07:25:30.683Z,24.89
2023-05-24T07:28:00.126Z,24.91
2023-05-24T07:30:46.490Z,25.01
2023-05-24T07:33:17.032Z,25.28
2023-05-24T07:35:51.781Z,25.77
2023-05-24T07:38:21.472Z,26.65
2023-05-24T07:40:50.355Z,26.99
2023-05-24T07:43:20.825Z,27.13
2023-05-24T07:45:49.729Z,27.50
2023-05-24T07:48:21.052Z,27.56
2023-05-24T07:50:50.462Z,27.59
2023-05-24T07:53:20.873Z,27.75
2023-05-24T07:55:51.174Z,27.73
2023-05-24T07:58:21.646Z,27.62
2023-05-24T08:00:50.823Z,27.60
2023-05-24T08:03:19.786Z,27.60
2023-05-24T08:05:49.212Z,27.54
2023-05-24T08:08:20.750Z,27.27
2023-05-24T08:10:49.511Z,26.95
2023-05-24T08:13:19.934Z,26.71
2023-05-24T08:15:52.299Z,26.56
2023-05-24T08:18:21.734Z,26.63
2023-05-24T08:20:52.826Z,26.72
2023-05-24T08:23:23.314Z,26.89
2023-05-24T08:25:53.447Z,27.04
2023-05-24T08:28:23.200Z,27.10
2023-05-24T08:30:52.447Z,27.12
2023-05-24T08:33:23.503Z,27.17
2023-05-24T08:35:52.815Z,27.36
2023-05-24T08:38:22.645Z,27.50
2023-05-24T08:40:51.714Z,27.69
2023-05-24T08:43:21.244Z,27.96
2023-05-24T08:45:51.954Z,28.27
2023-05-24T08:48:22.007Z,28.33
2023-05-24T08:50:51.597Z,28.33
2023-05-24T08:53:22.207Z,28.48
2023-05-24T08:55:56.338Z,28.64
2023-05-24T08:58:25.795Z,28.79
2023-05-24T09:00:54.910Z,29.01
2023-05-24T09:03:25.144Z,29.29
2023-05-24T09:05:55.662Z,29.65
2023-05-24T09:08:25.358Z,29.87
2023-05-24T09:10:56.434Z,30.14
2023-05-24T09:13:25.763Z,30.40
2023-05-24T09:15:55.342Z,30.79
2023-05-24T09:18:24.556Z,31.64
2023-05-24T09:20:53.852Z,32.12
2023-05-24T09:23:24.874Z,32.38
2023-05-24T09:25:54.187Z,32.50
2023-05-24T09:28:25.387Z,32.30
2023-05-24T09:31:07.867Z,32.34
2023-05-24T09:33:38.691Z,32.01
2023-05-24T09:36:09.718Z,31.76
2023-05-24T09:38:38.818Z,32.13
2023-05-24T09:41:15.575Z,32.49
2023-05-24T09:43:50.497Z,32.37
2023-05-24T09:46:22.051Z,32.28
2023-05-24T09:48:58.033Z,32.09
2023-05-24T09:51:28.469Z,31.97
2023-05-24T09:53:58.623Z,32.23
2023-05-24T09:56:27.954Z,32.06
2023-05-24T09:58:59.372Z,32.25
2023-05-24T10:01:28.955Z,31.98
2023-05-24T10:04:00.343Z,32.16
2023-05-24T10:06:30.405Z,31.84
2023-05-24T10:09:00.678Z,31.10
2023-05-24T10:11:29.895Z,30.58
2023-05-24T10:13:59.860Z,30.26
2023-05-24T10:16:29.153Z,29.83
2023-05-24T10:18:59.202Z,29.27
2023-05-24T10:21:29.956Z,28.94
2023-05-24T10:24:01.000Z,28.76
2023-05-24T10:26:32.507Z,28.70
2023-05-24T10:29:07.163Z,28.70
2023-05-24T10:31:39.732Z,28.86
2023-05-24T10:34:09.639Z,29.18
2023-05-24T10:36:40.913Z,29.27
2023-05-24T10:39:12.830Z,29.22
2023-05-24T10:41:43.228Z,29.26
2023-05-24T10:44:13.637Z,29.36
2023-05-24T10:47:00.852Z,29.37
2023-05-24T10:49:30.153Z,29.38
2023-05-24T10:52:09.107Z,29.47
2023-05-24T10:54:44.759Z,29.48
2023-05-24T10:57:24.820Z,29.55
2023-05-24T10:59:57.599Z,29.94
2023-05-24T11:02:36.011Z,30.17
2023-05-24T11:05:06.367Z,30.18
2023-05-24T11:07:43.419Z,30.42
2023-05-24T11:10:20.118Z,30.85
2023-05-24T11:12:58.043Z,31.38
2023-05-24T11:15:26.889Z,32.01
2023-05-24T11:18:14.234Z,31.96
2023-05-24T11:20:47.358Z,31.76
2023-05-24T11:23:17.443Z,31.36
2023-05-24T11:25:49.805Z,30.75
2023-05-24T11:28:19.512Z,30.09
2023-05-24T11:30:51.307Z,29.56
2023-05-24T11:33:21.148Z,29.34
2023-05-24T11:35:54.320Z,29.17
2023-05-24T11:38:25.069Z,29.21
2023-05-24T11:40:54.255Z,29.32
2023-05-24T11:43:23.189Z,29.42
2023-05-24T11:45:52.616Z,29.15
2023-05-24T11:48:22.239Z,28.89
2023-05-24T11:50:54.229Z,28.62
2023-05-24T11:53:23.202Z,28.41
2023-05-24T11:55:54.828Z,28.30
2023-05-24T11:58:26.137Z,28.43
2023-05-24T12:00:55.734Z,28.49
2023-05-24T12:03:28.143Z,28.40
2023-05-24T12:06:00.063Z,28.23
2023-05-24T12:08:30.213Z,28.14
2023-05-24T12:11:03.316Z,28.13
2023-05-24T12:13:34.165Z,28.03
2023-05-24T12:16:03.586Z,28.15
2023-05-24T12:18:35.460Z,28.02
2023-05-24T12:21:07.175Z,27.76
2023-05-24T12:23:36.252Z,27.60
2023-05-24T12:26:05.802Z,27.48
2023-05-24T12:28:39.578Z,27.36
2023-05-24T12:31:09.543Z,27.26
2023-05-24T12:33:39.984Z,27.25
2023-05-24T12:36:10.564Z,27.20
2023-05-24T12:38:40.723Z,27.17
2023-05-24T12:41:12.937Z,27.11
2023-05-24T12:43:44.886Z,27.10
2023-05-24T12:46:13.701Z,27.15
2023-05-24T12:48:44.521Z,27.40
2023-05-24T12:51:13.763Z,27.48
2023-05-24T12:53:43.736Z,27.55
2023-05-24T12:56:12.643Z,27.70
2023-05-24T12:58:41.894Z,27.95
2023-05-24T13:01:10.965Z,28.32
2023-05-24T13:03:41.018Z,28.60
2023-05-24T13:06:09.805Z,28.81
2023-05-24T13:08:40.759Z,28.78
2023-05-24T13:11:10.063Z,28.68
2023-05-24T13:13:42.346Z,28.54
2023-05-24T13:16:11.361Z,28.41
2023-05-24T13:18:41.351Z,28.28
2023-05-24T13:21:12.482Z,28.24
2023-05-24T13:23:45.631Z,28.10
2023-05-24T13:26:15.858Z,28.03
2023-05-24T13:29:07.603Z,28.05
2023-05-24T13:31:36.128Z,27.99
2023-05-24T13:34:06.745Z,27.73
2023-05-24T13:36:38.519Z,27.76
2023-05-24T13:41:45.368Z,27.59
2023-05-24T13:44:15.019Z,27.53
2023-05-24T13:46:44.863Z,27.48
2023-05-24T13:49:14.295Z,27.30
2023-05-24T13:51:44.686Z,27.34
2023-05-24T13:54:14.796Z,27.62
2023-05-24T13:56:45.234Z,27.71
2023-05-24T13:59:14.391Z,27.60
2023-05-24T14:01:46.067Z,27.41
2023-05-24T14:04:14.848Z,27.21
2023-05-24T14:06:43.732Z,27.13
2023-05-24T14:09:12.535Z,26.99
2023-05-24T14:11:41.694Z,26.87
2023-05-24T14:16:43.845Z,26.73
2023-05-24T14:19:16.500Z,26.88
2023-05-24T14:21:45.375Z,27.07
2023-05-24T14:24:14.213Z,27.27
2023-05-24T14:26:42.985Z,27.45
2023-05-24T14:29:13.670Z,27.54
2023-05-24T14:31:43.447Z,27.77
2023-05-24T14:34:12.645Z,28.10
2023-05-24T14:36:43.450Z,28.42
2023-05-24T14:39:12.320Z,28.66
2023-05-24T14:41:42.910Z,28.62
2023-05-24T14:44:13.235Z,28.53
2023-05-24T14:46:42.110Z,28.35
2023-05-24T14:49:14.066Z,28.09
2023-05-24T14:51:43.098Z,27.90
2023-05-24T14:54:13.388Z,27.77
2023-05-24T14:56:42.302Z,27.56
2023-05-24T14:59:11.107Z,27.35
2023-05-24T15:01:42.916Z,27.15
2023-05-24T15:04:11.838Z,27.13
2023-05-24T15:06:41.092Z,27.24
2023-05-24T15:09:10.314Z,27.35
2023-05-24T15:11:39.896Z,27.59
2023-05-24T15:14:09.885Z,27.81
2023-05-24T15:16:40.681Z,27.98
2023-05-24T15:19:11.114Z,27.96
2023-05-24T15:21:40.291Z,27.72
2023-05-24T15:24:09.565Z,27.52
2023-05-24T15:26:38.859Z,27.48
2023-05-24T15:29:07.693Z,27.52
2023-05-24T15:31:36.825Z,27.47
2023-05-24T15:34:06.336Z,27.63
2023-05-24T15:36:36.820Z,27.82
2023-05-24T15:39:08.548Z,27.99
2023-05-24T15:41:38.613Z,27.99
2023-05-24T15:44:11.492Z,27.75
2023-05-24T15:46:41.566Z,27.57
2023-05-24T15:49:11.077Z,27.35
2023-05-24T15:54:13.603Z,26.78
2023-05-24T15:56:44.036Z,26.52
2023-05-24T15:59:14.093Z,26.35
2023-05-24T16:01:44.100Z,26.19
2023-05-24T16:04:13.287Z,26.03
2023-05-24T16:06:42.528Z,25.85
2023-05-24T16:09:11.613Z,25.74
2023-05-24T16:11:42.018Z,25.68
2023-05-24T16:14:12.405Z,25.62
2023-05-24T16:16:43.202Z,25.58
2023-05-24T16:19:12.490Z,25.50
2023-05-24T16:21:45.299Z,25.43
2023-05-24T16:24:15.660Z,25.37
2023-05-24T16:26:46.901Z,25.14
2023-05-24T16:29:18.435Z,24.97
2023-05-24T16:31:49.997Z,24.86
2023-05-24T16:34:19.169Z,24.83
2023-05-24T16:36:51.751Z,24.88
2023-05-24T16:39:21.002Z,24.87
2023-05-24T16:41:50.184Z,24.90
2023-05-24T16:44:19.570Z,24.95
2023-05-24T16:46:48.839Z,25.03
2023-05-24T16:49:19.130Z,25.15
2023-05-24T16:51:48.739Z,25.08
2023-05-24T16:54:18.029Z,24.91
2023-05-24T16:56:48.326Z,24.82
2023-05-24T16:59:18.089Z,24.65
2023-05-24T17:01:49.970Z,24.49
2023-05-24T17:04:20.492Z,24.35
2023-05-24T17:06:51.050Z,24.23
2023-05-24T17:09:20.575Z,24.11
2023-05-24T17:11:52.050Z,23.99
2023-05-24T17:14:21.489Z,23.79
2023-05-24T17:16:50.224Z,23.62
2023-05-24T17:19:21.259Z,23.48
2023-05-24T17:21:51.594Z,23.28
2023-05-24T17:24:22.876Z,23.17
2023-05-24T17:26:53.056Z,23.04
2023-05-24T17:29:22.142Z,22.91
2023-05-24T17:31:51.843Z,22.80
2023-05-24T17:34:23.194Z,22.65
2023-05-24T17:36:59.231Z,22.57
2023-05-24T17:39:29.734Z,22.51
2023-05-24T17:42:00.365Z,22.41
2023-05-24T17:44:31.881Z,22.29
2023-05-24T17:47:05.364Z,22.20
2023-05-24T17:49:35.194Z,22.06
2023-05-24T17:52:07.497Z,21.94
2023-05-24T17:54:36.814Z,21.85
2023-05-24T17:57:08.056Z,21.82
2023-05-24T17:59:38.316Z,21.81
2023-05-24T18:02:08.920Z,21.75
2023-05-24T18:04:37.953Z,21.65
2023-05-24T18:07:07.791Z,21.56
2023-05-24T18:09:46.227Z,21.51
2023-05-24T18:12:15.964Z,21.41
2023-05-24T18:14:45.488Z,21.33
2023-05-24T18:17:15.351Z,21.25
2023-05-24T18:19:44.473Z,21.14
2023-05-24T18:22:14.364Z,21.04
2023-05-24T18:24:43.995Z,21.05
2023-05-24T18:27:13.975Z,21.01
2023-05-24T18:29:43.409Z,20.97
2023-05-24T18:32:13.145Z,20.88
2023-05-24T18:34:43.307Z,20.78
2023-05-24T18:37:13.898Z,20.71
2023-05-24T18:39:42.919Z,20.63
2023-05-24T18:42:13.012Z,20.58
2023-05-24T18:44:42.179Z,20.49
2023-05-24T18:47:12.366Z,20.37
2023-05-24T18:49:42.686Z,20.35
2023-05-24T18:52:12.216Z,20.36
2023-05-24T18:54:42.488Z,20.31
2023-05-24T18:57:12.894Z,20.19
2023-05-24T18:59:43.222Z,20.08
2023-05-24T19:02:13.827Z,19.99
2023-05-24T19:04:48.329Z,19.90
2023-05-24T19:07:17.786Z,19.83
2023-05-24T19:09:48.888Z,19.82
2023-05-24T19:12:19.359Z,19.76
2023-05-24T19:14:48.360Z,19.67
2023-05-24T19:17:17.984Z,19.65
2023-05-24T19:19:48.678Z,19.68
2023-05-24T19:22:19.196Z,19.64
2023-05-24T19:24:48.462Z,19.57
2023-05-24T19:27:19.110Z,19.48
2023-05-24T19:29:49.067Z,19.46
2023-05-24T19:32:18.725Z,19.37
2023-05-24T19:34:48.782Z,19.28
2023-05-24T19:37:21.368Z,19.22
2023-05-24T19:39:51.958Z,19.13
2023-05-24T19:42:21.442Z,19.08
2023-05-24T19:44:50.821Z,19.04
2023-05-24T19:47:22.128Z,18.99
2023-05-24T19:49:51.950Z,18.93
2023-05-24T19:52:22.152Z,18.91
2023-05-24T19:54:53.482Z,18.89
2023-05-24T19:57:23.282Z,18.83
2023-05-24T19:59:54.450Z,18.75
2023-05-24T20:02:23.893Z,18.69
2023-05-24T20:04:53.980Z,18.61
2023-05-24T20:07:24.054Z,18.56
2023-05-24T20:09:54.722Z,18.50
2023-05-24T20:12:23.673Z,18.47
2023-05-24T20:14:52.917Z,18.45
2023-05-24T20:17:26.363Z,18.41
2023-05-24T20:19:55.451Z,18.33
2023-05-24T20:22:25.481Z,18.26
2023-05-24T20:24:56.132Z,18.18
2023-05-24T20:27:27.641Z,18.13
2023-05-24T20:29:57.358Z,18.05
2023-05-24T20:32:29.384Z,17.97
2023-05-24T20:34:59.260Z,17.89
2023-05-24T20:37:33.015Z,17.90
2023-05-24T20:40:04.662Z,17.87
2023-05-24T20:42:34.437Z,17.79
2023-05-24T20:45:05.956Z,17.75
2023-05-24T20:47:35.502Z,17.70
2023-05-24T20:50:05.941Z,17.67
2023-05-24T20:52:34.944Z,17.59
2023-05-24T20:55:05.459Z,17.53
2023-05-24T20:57:34.522Z,17.49
2023-05-24T21:00:07.369Z,17.45
2023-05-24T21:02:37.851Z,17.40
2023-05-24T21:05:08.889Z,17.32
2023-05-24T21:07:38.451Z,17.22
2023-05-24T21:10:08.066Z,17.10
2023-05-24T21:12:37.171Z,17.07
2023-05-24T21:15:06.342Z,17.08
2023-05-24T21:17:36.398Z,17.03
2023-05-24T21:20:07.078Z,16.88
2023-05-24T21:22:36.141Z,16.78
2023-05-24T21:25:07.708Z,16.68
2023-05-24T21:27:40.009Z,16.65
2023-05-24T21:30:09.439Z,16.57
2023-05-24T21:32:39.038Z,16.47
2023-05-24T21:35:09.228Z,16.44
2023-05-24T21:37:38.638Z,16.36
2023-05-24T21:40:08.499Z,16.30
2023-05-24T21:42:38.670Z,16.24
2023-05-24T21:45:09.087Z,16.18
2023-05-24T21:47:38.793Z,16.08
2023-05-24T21:50:08.458Z,15.98
2023-05-24T21:52:37.885Z,15.98
2023-05-24T21:55:08.094Z,15.96
2023-05-24T21:57:38.579Z,15.94
2023-05-24T22:00:09.789Z,15.88
2023-05-24T22:02:38.739Z,15.88
2023-05-24T22:05:08.815Z,15.87
2023-05-24T22:07:40.394Z,15.82
2023-05-24T22:10:12.530Z,15.79
2023-05-24T22:12:43.757Z,15.77
2023-05-24T22:15:14.865Z,15.75
2023-05-24T22:17:45.587Z,15.66
2023-05-24T22:20:14.903Z,15.59
2023-05-24T22:22:53.873Z,15.52
2023-05-24T22:25:26.385Z,15.46
2023-05-24T22:27:59.788Z,15.42
2023-05-24T22:30:32.256Z,15.37
2023-05-24T22:33:01.653Z,15.26
2023-05-24T22:35:31.242Z,15.16
2023-05-24T22:38:03.723Z,15.12
2023-05-24T22:40:32.764Z,15.10
2023-05-24T22:43:01.723Z,15.08
2023-05-24T22:45:31.762Z,15.01
2023-05-24T22:48:03.787Z,14.94
2023-05-24T22:50:35.348Z,14.88
2023-05-24T22:53:04.673Z,14.79
2023-05-24T22:55:35.354Z,14.72
2023-05-24T22:58:06.569Z,14.72
2023-05-24T23:00:37.017Z,14.71
2023-05-24T23:03:08.247Z,14.70
2023-05-24T23:05:38.503Z,14.69
2023-05-24T23:08:13.322Z,14.64
2023-05-24T23:10:46.025Z,14.53
2023-05-24T23:13:19.518Z,14.48
2023-05-24T23:15:51.249Z,14.43
2023-05-24T23:18:25.142Z,14.34
2023-05-24T23:20:55.268Z,14.27
2023-05-24T23:23:25.659Z,14.21
2023-05-24T23:25:56.547Z,14.28
2023-05-24T23:28:27.398Z,14.32
2023-05-24T23:30:58.169Z,14.34
2023-05-24T23:33:27.620Z,14.36
2023-05-24T23:35:58.438Z,14.37
2023-05-24T23:38:27.260Z,14.35
2023-05-24T23:40:56.289Z,14.37
2023-05-24T23:43:26.500Z,14.37
2023-05-24T23:45:57.032Z,14.33
2023-05-24T23:48:26.146Z,14.32
2023-05-24T23:50:55.566Z,14.34
2023-05-24T23:53:26.244Z,14.40
2023-05-24T23:55:56.065Z,14.39
2023-05-24T23:58:27.635Z,14.49
